createdAt,value
2019-02-26T00:01:18.492Z,97350.24
2019-02-26T00:04:04.536Z,97350.27
2019-02-26T00:06:54.038Z,97350.72
2019-02-26T00:09:45.039Z,97349.88
2019-02-26T00:12:35.475Z,97356.72
2019-02-26T00:15:23.512Z,97349.23
2019-02-26T00:18:13.976Z,97356.42
2019-02-26T00:21:03.310Z,97358.45
2019-02-26T00:23:53.170Z,97355.42
2019-02-26T00:26:43.493Z,97353.58
2019-02-26T00:29:32.502Z,97352.30
2019-02-26T00:32:22.103Z,97350.85
2019-02-26T00:35:10.767Z,97348.73
2019-02-26T00:37:59.019Z,97346.04
2019-02-26T00:40:47.662Z,97330.59
2019-02-26T00:43:37.090Z,97336.27
2019-02-26T00:46:27.862Z,97338.85
2019-02-26T00:49:15.291Z,97340.83
2019-02-26T00:52:04.585Z,97333.83
2019-02-26T00:54:57.442Z,97332.91
2019-02-26T00:57:44.599Z,97327.12
2019-02-26T01:00:35.342Z,97315.61
2019-02-26T01:03:23.951Z,97304.92
2019-02-26T01:06:13.119Z,97303.50
2019-02-26T01:09:03.635Z,97292.82
2019-02-26T01:11:53.975Z,97282.82
2019-02-26T01:14:44.083Z,97273.69
2019-02-26T01:17:33.355Z,97276.92
2019-02-26T01:20:24.852Z,97273.25
2019-02-26T01:23:12.608Z,97267.88
2019-02-26T01:26:01.219Z,97264.21
2019-02-26T01:28:51.197Z,97263.17
2019-02-26T01:31:40.403Z,97260.81
2019-02-26T01:34:29.456Z,97254.28
2019-02-26T01:37:18.421Z,97243.06
2019-02-26T01:40:10.839Z,97242.58
2019-02-26T01:43:00.485Z,97244.23
2019-02-26T01:45:50.643Z,97244.97
2019-02-26T01:48:39.514Z,97240.65
2019-02-26T01:51:28.720Z,97237.18
2019-02-26T01:54:17.306Z,97243.25
2019-02-26T01:57:08.566Z,97240.28
2019-02-26T01:59:56.023Z,97247.09
2019-02-26T02:02:44.268Z,97252.27
2019-02-26T02:05:33.319Z,97258.13
2019-02-26T02:08:24.873Z,97260.63
2019-02-26T02:11:12.915Z,97260.17
2019-02-26T02:14:01.987Z,97248.95
2019-02-26T02:16:51.337Z,97245.83
2019-02-26T02:19:40.313Z,97241.56
2019-02-26T02:22:29.602Z,97238.07
2019-02-26T02:25:18.490Z,97239.39
2019-02-26T02:28:07.165Z,97239.45
2019-02-26T02:30:55.699Z,97238.83
2019-02-26T02:33:44.706Z,97239.66
2019-02-26T02:36:33.316Z,97240.95
2019-02-26T02:39:24.002Z,97243.98
2019-02-26T02:42:14.077Z,97235.95
2019-02-26T02:45:05.073Z,97236.98
2019-02-26T02:47:57.784Z,97240.38
2019-02-26T02:50:42.738Z,97243.42
2019-02-26T02:53:32.370Z,97237.05
2019-02-26T02:56:21.172Z,97238.52
2019-02-26T02:59:11.289Z,97230.83
2019-02-26T03:01:59.764Z,97229.55
2019-02-26T03:04:48.521Z,97229.91
2019-02-26T03:07:37.476Z,97231.20
2019-02-26T03:10:30.836Z,97225.59
2019-02-26T03:13:16.918Z,97223.35
2019-02-26T03:16:06.753Z,97220.69
2019-02-26T03:18:55.612Z,97219.70
2019-02-26T03:21:46.740Z,97218.02
2019-02-26T03:24:35.954Z,97216.27
2019-02-26T03:27:27.797Z,97219.97
2019-02-26T03:30:26.154Z,97229.34
2019-02-26T03:33:07.897Z,97225.28
2019-02-26T03:35:56.350Z,97204.89
2019-02-26T03:38:48.346Z,97197.00
2019-02-26T03:41:35.882Z,97194.15
2019-02-26T03:44:29.626Z,97197.98
2019-02-26T03:47:16.281Z,97185.39
2019-02-26T03:50:08.589Z,97188.23
2019-02-26T03:52:56.046Z,97188.63
2019-02-26T03:55:44.653Z,97191.94
2019-02-26T03:58:33.322Z,97196.89
2019-02-26T04:01:22.469Z,97191.58
2019-02-26T04:04:11.514Z,97194.13
2019-02-26T04:07:01.443Z,97194.16
2019-02-26T04:09:53.173Z,97184.33
2019-02-26T04:12:42.341Z,97189.44
2019-02-26T04:15:32.831Z,97198.84
2019-02-26T04:18:20.973Z,97196.60
2019-02-26T04:21:12.202Z,97189.55
2019-02-26T04:24:01.094Z,97191.76
2019-02-26T04:27:24.012Z,97183.18
2019-02-26T04:30:38.930Z,97183.58
2019-02-26T04:33:59.550Z,97170.62
2019-02-26T04:37:10.101Z,97168.41
2019-02-26T04:40:22.677Z,97155.09
2019-02-26T04:43:51.969Z,97150.84
2019-02-26T04:46:44.208Z,97156.71
2019-02-26T04:49:34.238Z,97160.56
2019-02-26T04:52:22.621Z,97147.73
2019-02-26T04:55:11.143Z,97148.27
2019-02-26T04:57:59.640Z,97157.66
2019-02-26T05:00:48.421Z,97154.17
2019-02-26T05:03:37.292Z,97148.56
2019-02-26T05:06:25.443Z,97153.16
2019-02-26T05:09:13.560Z,97145.87
2019-02-26T05:12:02.552Z,97143.69
2019-02-26T05:14:50.921Z,97141.02
2019-02-26T05:17:40.026Z,97138.45
2019-02-26T05:20:28.737Z,97135.05
2019-02-26T05:23:16.989Z,97135.58
2019-02-26T05:26:08.225Z,97131.30
2019-02-26T05:28:55.787Z,97138.05
2019-02-26T05:31:44.381Z,97140.63
2019-02-26T05:34:33.091Z,97144.88
2019-02-26T05:37:22.126Z,97137.04
2019-02-26T05:40:13.355Z,97146.44
2019-02-26T05:43:01.880Z,97147.16
2019-02-26T05:45:54.039Z,97150.20
2019-02-26T05:48:42.907Z,97154.94
2019-02-26T05:51:32.796Z,97155.14
2019-02-26T05:54:24.492Z,97151.28
2019-02-26T05:57:25.893Z,97150.36
2019-02-26T06:00:04.561Z,97155.20
2019-02-26T06:02:54.896Z,97157.31
2019-02-26T06:05:46.005Z,97163.38
2019-02-26T06:08:35.887Z,97165.59
2019-02-26T06:11:28.359Z,97161.67
2019-02-26T06:14:14.107Z,97162.19
2019-02-26T06:17:02.942Z,97162.09
2019-02-26T06:19:51.528Z,97153.56
2019-02-26T06:22:39.964Z,97162.19
2019-02-26T06:25:28.483Z,97160.18
2019-02-26T06:28:18.569Z,97163.31
2019-02-26T06:31:07.283Z,97163.51
2019-02-26T06:33:56.506Z,97167.92
2019-02-26T06:36:46.590Z,97161.62
2019-02-26T06:39:36.306Z,97173.72
2019-02-26T06:42:25.080Z,97171.73
2019-02-26T06:45:16.217Z,97171.83
2019-02-26T06:48:03.396Z,97179.70
2019-02-26T06:50:52.454Z,97186.23
2019-02-26T06:53:45.071Z,97192.30
2019-02-26T06:56:34.447Z,97181.94
2019-02-26T06:59:29.569Z,97169.63
2019-02-26T07:02:19.253Z,97176.59
2019-02-26T07:05:09.781Z,97182.28
2019-02-26T07:07:59.577Z,97177.30
2019-02-26T07:10:49.140Z,97177.39
2019-02-26T07:13:39.173Z,97177.51
2019-02-26T07:16:27.338Z,97181.89
2019-02-26T07:19:16.748Z,97180.73
2019-02-26T07:22:07.713Z,97183.85
2019-02-26T07:24:55.351Z,97179.68
2019-02-26T07:27:43.682Z,97182.47
2019-02-26T07:30:32.608Z,97184.02
2019-02-26T07:33:22.645Z,97180.87
2019-02-26T07:36:10.911Z,97176.88
2019-02-26T07:38:59.971Z,97170.69
2019-02-26T07:41:49.314Z,97170.09
2019-02-26T07:44:38.564Z,97168.16
2019-02-26T07:47:28.886Z,97170.66
2019-02-26T07:50:17.730Z,97171.68
2019-02-26T07:53:06.860Z,97179.09
2019-02-26T07:55:56.864Z,97182.53
2019-02-26T07:58:45.784Z,97181.86
2019-02-26T08:01:35.437Z,97177.91
2019-02-26T08:04:24.699Z,97181.48
2019-02-26T08:07:13.051Z,97172.60
2019-02-26T08:10:01.237Z,97178.77
2019-02-26T08:12:49.824Z,97184.44
2019-02-26T08:15:39.921Z,97179.07
2019-02-26T08:18:28.707Z,97180.18
2019-02-26T08:21:17.671Z,97180.91
2019-02-26T08:24:07.355Z,97190.32
2019-02-26T08:26:55.745Z,97179.44
2019-02-26T08:29:43.820Z,97187.91
2019-02-26T08:32:32.223Z,97179.14
2019-02-26T08:35:20.796Z,97187.61
2019-02-26T08:38:09.809Z,97196.12
2019-02-26T08:40:58.155Z,97195.91
2019-02-26T08:43:49.616Z,97196.62
2019-02-26T08:46:37.840Z,97200.39
2019-02-26T08:49:27.501Z,97190.69
2019-02-26T08:52:17.515Z,97193.59
2019-02-26T08:55:07.205Z,97195.59
2019-02-26T08:57:56.642Z,97191.98
2019-02-26T09:00:45.721Z,97187.86
2019-02-26T09:03:40.721Z,97181.64
2019-02-26T09:06:24.487Z,97183.17
2019-02-26T09:09:13.279Z,97172.59
2019-02-26T09:12:03.220Z,97166.78
2019-02-26T09:14:52.388Z,97169.58
2019-02-26T09:17:42.143Z,97174.98
2019-02-26T09:20:31.400Z,97176.39
2019-02-26T09:23:21.174Z,97169.21
2019-02-26T09:26:09.894Z,97171.55
2019-02-26T09:28:58.966Z,97160.55
2019-02-26T09:31:48.108Z,97156.00
2019-02-26T09:34:37.974Z,97153.58
2019-02-26T09:37:26.635Z,97148.17
2019-02-26T09:40:17.190Z,97140.17
2019-02-26T09:43:06.611Z,97141.67
2019-02-26T09:45:54.892Z,97137.47
2019-02-26T09:48:45.300Z,97132.36
2019-02-26T09:51:35.312Z,97128.56
2019-02-26T09:54:23.480Z,97133.84
2019-02-26T09:57:15.547Z,97128.25
2019-02-26T10:00:03.342Z,97126.59
2019-02-26T10:02:52.239Z,97130.10
2019-02-26T10:05:41.503Z,97135.76
2019-02-26T10:08:30.719Z,97139.23
2019-02-26T10:11:21.225Z,97128.78
2019-02-26T10:14:10.311Z,97128.77
2019-02-26T10:16:59.685Z,97135.69
2019-02-26T10:19:48.441Z,97133.52
2019-02-26T10:22:38.507Z,97137.37
2019-02-26T10:25:31.077Z,97146.02
2019-02-26T10:28:18.992Z,97133.78
2019-02-26T10:31:09.623Z,97135.00
2019-02-26T10:33:57.416Z,97139.75
2019-02-26T10:36:48.690Z,97130.95
2019-02-26T10:39:35.945Z,97131.77
2019-02-26T10:42:24.366Z,97131.67
2019-02-26T10:45:13.674Z,97127.66
2019-02-26T10:48:01.932Z,97131.48
2019-02-26T10:50:51.872Z,97130.50
2019-02-26T10:53:40.856Z,97127.78
2019-02-26T10:56:30.693Z,97125.06
2019-02-26T10:59:20.143Z,97130.66
2019-02-26T11:02:08.849Z,97123.53
2019-02-26T11:04:57.441Z,97117.28
2019-02-26T11:07:45.975Z,97121.00
2019-02-26T11:10:39.322Z,97119.95
2019-02-26T11:13:25.642Z,97116.64
2019-02-26T11:16:22.905Z,97116.48
2019-02-26T11:19:06.980Z,97111.91
2019-02-26T11:21:57.624Z,97106.00
2019-02-26T11:24:44.895Z,97109.33
2019-02-26T11:27:35.244Z,97104.26
2019-02-26T11:30:25.849Z,97104.01
2019-02-26T11:33:15.599Z,97103.38
2019-02-26T11:36:05.574Z,97105.32
2019-02-26T11:38:54.443Z,97098.64
2019-02-26T11:41:43.176Z,97100.73
2019-02-26T11:44:32.067Z,97100.04
2019-02-26T11:47:20.650Z,97100.14
2019-02-26T11:50:15.235Z,97096.30
2019-02-26T11:53:03.959Z,97087.16
2019-02-26T11:55:54.481Z,97079.16
2019-02-26T11:58:42.537Z,97080.94
2019-02-26T12:01:32.225Z,97075.99
2019-02-26T12:04:20.833Z,97069.72
2019-02-26T12:07:09.941Z,97068.19
2019-02-26T12:10:04.685Z,97064.12
2019-02-26T12:12:51.350Z,97054.13
2019-02-26T12:15:42.738Z,97049.14
2019-02-26T12:18:29.888Z,97048.27
2019-02-26T12:21:18.355Z,97048.42
2019-02-26T12:24:09.231Z,97045.86
2019-02-26T12:26:57.208Z,97050.80
2019-02-26T12:29:48.307Z,97035.84
2019-02-26T12:32:35.951Z,97035.84
2019-02-26T12:35:25.285Z,97036.66
2019-02-26T12:38:18.788Z,97030.02
2019-02-26T12:41:08.176Z,97028.87
2019-02-26T12:43:53.877Z,97028.87
2019-02-26T12:46:42.040Z,97022.06
2019-02-26T12:49:33.252Z,97019.47
2019-02-26T12:52:21.881Z,97023.59
2019-02-26T12:55:11.814Z,97014.06
2019-02-26T12:58:00.269Z,97007.75
2019-02-26T13:00:48.600Z,97008.66
2019-02-26T13:03:39.790Z,97004.25
2019-02-26T13:06:27.462Z,97004.25
2019-02-26T13:09:16.196Z,97011.61
2019-02-26T13:12:07.499Z,97003.56
2019-02-26T13:15:02.450Z,97003.39
2019-02-26T13:17:48.898Z,96995.34
2019-02-26T13:20:35.979Z,96988.78
2019-02-26T13:23:24.119Z,96982.66
2019-02-26T13:26:14.410Z,96980.12
2019-02-26T13:29:02.271Z,96977.14
2019-02-26T13:31:56.547Z,96981.45
2019-02-26T13:34:40.882Z,96973.34
2019-02-26T13:37:34.668Z,96967.73
2019-02-26T13:40:21.035Z,96967.77
2019-02-26T13:43:10.100Z,96962.55
2019-02-26T13:45:58.534Z,96962.80
2019-02-26T13:48:47.016Z,96962.06
2019-02-26T13:51:36.239Z,96964.70
2019-02-26T13:54:25.392Z,96959.54
2019-02-26T13:57:13.856Z,96951.77
2019-02-26T14:00:03.408Z,96951.06
2019-02-26T14:02:52.189Z,96962.32
2019-02-26T14:05:40.593Z,96948.41
2019-02-26T14:08:29.016Z,96940.70
2019-02-26T14:11:18.005Z,96944.10
2019-02-26T14:14:06.288Z,96940.73
2019-02-26T14:16:54.852Z,96941.67
2019-02-26T14:19:43.862Z,96943.09
2019-02-26T14:22:32.998Z,96939.41
2019-02-26T14:25:21.494Z,96940.28
2019-02-26T14:28:10.209Z,96942.33
2019-02-26T14:30:58.635Z,96940.23
2019-02-26T14:33:47.304Z,96943.01
2019-02-26T14:36:36.094Z,96942.70
2019-02-26T14:39:25.228Z,96943.62
2019-02-26T14:42:14.060Z,96949.61
2019-02-26T14:45:02.799Z,96944.14
2019-02-26T14:47:51.899Z,96936.50
2019-02-26T14:50:40.738Z,96923.70
2019-02-26T14:53:29.730Z,96917.87
2019-02-26T14:56:17.927Z,96918.34
2019-02-26T14:59:06.592Z,96899.50
2019-02-26T15:01:54.976Z,96913.17
2019-02-26T15:04:43.461Z,96913.17
2019-02-26T15:07:31.727Z,96912.52
2019-02-26T15:10:20.692Z,96907.18
2019-02-26T15:13:09.566Z,96906.87
2019-02-26T15:15:58.572Z,96904.45
2019-02-26T15:18:47.242Z,96904.45
2019-02-26T15:21:35.949Z,96900.75
2019-02-26T15:24:25.280Z,96899.02
2019-02-26T15:27:13.962Z,96907.14
2019-02-26T15:30:02.237Z,96908.41
2019-02-26T15:32:51.044Z,96901.08
2019-02-26T15:35:39.947Z,96901.55
2019-02-26T15:38:28.536Z,96901.08
2019-02-26T15:41:16.836Z,96908.08
2019-02-26T15:44:05.649Z,96922.48
2019-02-26T15:46:55.023Z,96908.88
2019-02-26T15:49:43.869Z,96908.75
2019-02-26T15:52:32.557Z,96907.75
2019-02-26T15:55:21.548Z,96910.51
2019-02-26T15:58:11.621Z,96913.95
2019-02-26T16:01:00.567Z,96912.72
2019-02-26T16:03:49.348Z,96919.91
2019-02-26T16:06:38.345Z,96920.48
2019-02-26T16:09:27.567Z,96911.49
2019-02-26T16:12:16.369Z,96915.42
2019-02-26T16:15:07.974Z,96912.02
2019-02-26T16:17:58.098Z,96922.31
2019-02-26T16:20:45.817Z,96926.66
2019-02-26T16:23:34.501Z,96921.35
2019-02-26T16:26:23.251Z,96919.09
2019-02-26T16:29:11.910Z,96914.30
2019-02-26T16:32:02.645Z,96918.45
2019-02-26T16:34:52.488Z,96919.00
2019-02-26T16:37:41.598Z,96919.63
2019-02-26T16:40:32.261Z,96922.49
2019-02-26T16:43:21.292Z,96913.22
2019-02-26T16:46:09.821Z,96921.14
2019-02-26T16:48:58.821Z,96917.05
2019-02-26T16:51:47.677Z,96920.09
2019-02-26T16:54:36.272Z,96926.64
2019-02-26T16:57:25.725Z,96910.78
2019-02-26T17:00:17.110Z,96912.84
2019-02-26T17:03:07.094Z,96918.70
2019-02-26T17:05:56.420Z,96914.17
2019-02-26T17:08:47.331Z,96913.48
2019-02-26T17:11:35.426Z,96908.01
2019-02-26T17:14:24.046Z,96905.62
2019-02-26T17:17:12.573Z,96908.45
2019-02-26T17:20:01.630Z,96909.16
2019-02-26T17:22:50.094Z,96918.87
2019-02-26T17:25:38.648Z,96914.13
2019-02-26T17:28:27.260Z,96922.59
2019-02-26T17:31:16.160Z,96922.37
2019-02-26T17:34:05.464Z,96919.89
2019-02-26T17:36:53.547Z,96917.44
2019-02-26T17:39:42.086Z,96920.14
2019-02-26T17:42:31.025Z,96928.91
2019-02-26T17:45:20.150Z,96933.77
2019-02-26T17:48:08.591Z,96930.75
2019-02-26T17:50:57.944Z,96926.52
2019-02-26T17:53:47.021Z,96927.46
2019-02-26T17:56:35.602Z,96924.92
2019-02-26T17:59:24.121Z,96926.27
2019-02-26T18:02:12.854Z,96926.34
2019-02-26T18:05:01.910Z,96930.36
2019-02-26T18:07:50.380Z,96929.56
2019-02-26T18:10:39.586Z,96934.84
2019-02-26T18:13:28.684Z,96935.77
2019-02-26T18:16:20.041Z,96931.47
2019-02-26T18:19:12.147Z,96925.84
2019-02-26T18:21:58.783Z,96923.70
2019-02-26T18:24:47.860Z,96928.50
2019-02-26T18:27:36.883Z,96920.71
2019-02-26T18:30:27.360Z,96917.67
2019-02-26T18:33:16.320Z,96922.48
2019-02-26T18:36:05.758Z,96925.53
2019-02-26T18:38:54.917Z,96926.86
2019-02-26T18:41:50.513Z,96927.73
2019-02-26T18:44:33.976Z,96928.16
2019-02-26T18:47:22.923Z,96933.81
2019-02-26T18:50:12.010Z,96929.91
2019-02-26T18:53:02.403Z,96932.09
2019-02-26T18:55:51.174Z,96944.22
2019-02-26T18:58:40.148Z,96933.80
2019-02-26T19:01:30.799Z,96944.64
2019-02-26T19:04:19.367Z,96943.31
2019-02-26T19:07:08.363Z,96938.13
2019-02-26T19:09:57.821Z,96934.20
2019-02-26T19:12:46.498Z,96936.81
2019-02-26T19:15:35.160Z,96937.24
2019-02-26T19:18:23.811Z,96940.70
2019-02-26T19:21:12.386Z,96941.55
2019-02-26T19:24:04.418Z,96940.70
2019-02-26T19:26:51.904Z,96942.44
2019-02-26T19:29:40.790Z,96938.97
2019-02-26T19:32:29.244Z,96935.94
2019-02-26T19:35:17.841Z,96935.06
2019-02-26T19:38:11.846Z,96936.80
2019-02-26T19:41:05.370Z,96934.19
2019-02-26T19:43:54.338Z,96931.57
2019-02-26T19:46:43.347Z,96942.00
2019-02-26T19:49:32.377Z,96939.39
2019-02-26T19:52:21.951Z,96936.33
2019-02-26T19:55:16.874Z,96935.47
2019-02-26T19:58:07.347Z,96941.08
2019-02-26T20:00:57.830Z,96933.70
2019-02-26T20:03:46.493Z,96938.43
2019-02-26T20:06:35.332Z,96933.20
2019-02-26T20:09:24.461Z,96939.27
2019-02-26T20:12:13.607Z,96930.56
2019-02-26T20:15:02.417Z,96927.09
2019-02-26T20:17:51.193Z,96926.64
2019-02-26T20:20:41.031Z,96923.63
2019-02-26T20:23:30.774Z,96924.94
2019-02-26T20:26:20.491Z,96924.48
2019-02-26T20:29:09.168Z,96921.45
2019-02-26T20:31:58.282Z,96927.02
2019-02-26T20:34:47.018Z,96926.54
2019-02-26T20:37:36.342Z,96923.02
2019-02-26T20:40:25.147Z,96921.72
2019-02-26T20:43:13.894Z,96921.63
2019-02-26T20:46:03.053Z,96919.02
2019-02-26T20:48:52.414Z,96924.21
2019-02-26T20:51:41.668Z,96918.15
2019-02-26T20:54:30.601Z,96917.70
2019-02-26T20:57:19.506Z,96914.20
2019-02-26T21:00:10.312Z,96913.73
2019-02-26T21:02:58.885Z,96914.53
2019-02-26T21:05:47.940Z,96908.88
2019-02-26T21:08:36.362Z,96904.08
2019-02-26T21:11:25.289Z,96903.62
2019-02-26T21:14:13.976Z,96892.82
2019-02-26T21:17:02.872Z,96891.55
2019-02-26T21:19:51.992Z,96885.09
2019-02-26T21:22:40.981Z,96874.29
2019-02-26T21:25:29.444Z,96871.73
2019-02-26T21:28:18.500Z,96870.91
2019-02-26T21:31:07.777Z,96864.85
2019-02-26T21:33:57.084Z,96858.39
2019-02-26T21:36:46.643Z,96867.08
2019-02-26T21:39:35.245Z,96869.24
2019-02-26T21:42:23.906Z,96872.73
2019-02-26T21:45:16.118Z,96867.15
2019-02-26T21:48:03.971Z,96872.34
2019-02-26T21:50:54.510Z,96871.50
2019-02-26T21:53:43.126Z,96861.55
2019-02-26T21:56:32.039Z,96871.07
2019-02-26T21:59:21.153Z,96878.01
2019-02-26T22:02:09.513Z,96881.45
2019-02-26T22:04:58.011Z,96885.80
2019-02-26T22:07:52.100Z,96894.45
2019-02-26T22:10:40.212Z,96897.02
2019-02-26T22:13:29.270Z,96898.27
2019-02-26T22:16:18.819Z,96905.20
2019-02-26T22:19:07.731Z,96903.88
2019-02-26T22:21:56.844Z,96908.22
2019-02-26T22:24:46.165Z,96904.31
2019-02-26T22:27:36.163Z,96909.51
2019-02-26T22:30:26.007Z,96905.17
2019-02-26T22:33:14.182Z,96911.23
2019-02-26T22:36:02.265Z,96899.97
2019-02-26T22:38:50.381Z,96905.17
2019-02-26T22:41:38.930Z,96898.26
2019-02-26T22:44:27.221Z,96904.31
2019-02-26T22:47:15.871Z,96899.55
2019-02-26T22:50:05.370Z,96897.83
2019-02-26T22:52:54.144Z,96895.63
2019-02-26T22:55:42.403Z,96909.45
2019-02-26T22:58:35.650Z,96909.45
2019-02-26T23:01:30.774Z,96911.14
2019-02-26T23:04:19.634Z,96916.73
2019-02-26T23:07:10.020Z,96915.88
2019-02-26T23:09:59.227Z,96909.37
2019-02-26T23:12:48.401Z,96918.88
2019-02-26T23:15:37.236Z,96919.71
2019-02-26T23:18:28.536Z,96919.23
2019-02-26T23:21:16.291Z,96913.07
2019-02-26T23:24:05.777Z,96913.03
2019-02-26T23:26:55.286Z,96916.89
2019-02-26T23:29:44.661Z,96902.61
2019-02-26T23:32:33.429Z,96899.08
2019-02-26T23:35:22.519Z,96909.88
2019-02-26T23:38:11.060Z,96908.97
2019-02-26T23:41:00.331Z,96898.98
2019-02-26T23:43:49.686Z,96897.20
2019-02-26T23:46:38.284Z,96886.78
2019-02-26T23:49:27.170Z,96893.61
2019-02-26T23:52:16.259Z,96889.27
2019-02-26T23:55:05.547Z,96881.88
2019-02-26T23:57:57.755Z,96884.91
